Time;durP1;ratioP1;P1;durP2;ratioP2;P2;SDS_P1;SDS_P2;PMS_P1;PMS_P2;Temp;Humidity;BMP_temperature;BMP_pressure;BME280_temperature;BME280_humidity;BME280_pressure;Samples;Min_cycle;Max_cycle;Signal;HPM_P1;HPM_P2
2022/06/10 00:00:03;;;;;;;12.80;5.50;;;;;;;;;;5014436;28;20050;-74
2022/06/10 00:02:29;;;;;;;14.30;5.70;;;;;;;;;;5017007;28;20073;-72
2022/06/10 00:04:56;;;;;;;13.63;4.90;;;;;;;;;;5016896;28;20038;-74
2022/06/10 00:07:22;;;;;;;10.82;5.30;;;;;;;;;;5005952;28;20042;-74
2022/06/10 00:09:48;;;;;;;8.80;5.10;;;;;;;;;;5017122;28;20094;-73
2022/06/10 00:12:14;;;;;;;10.65;5.40;;;;;;;;;;5017270;28;20105;-73
2022/06/10 00:14:40;;;;;;;10.77;5.38;;;;;;;;;;5016206;28;20042;-73
2022/06/10 00:17:06;;;;;;;9.55;5.35;;;;;;;;;;5017467;28;20042;-73
2022/06/10 00:19:32;;;;;;;11.50;5.78;;;;;;;;;;5016637;28;20038;-74
2022/06/10 00:21:58;;;;;;;12.45;5.88;;;;;;;;;;5017051;28;20081;-73
2022/06/10 00:24:24;;;;;;;12.73;6.03;;;;;;;;;;5001270;28;20046;-73
2022/06/10 00:26:50;;;;;;;10.05;5.82;;;;;;;;;;5017718;28;20050;-74
2022/06/10 00:29:16;;;;;;;10.25;5.30;;;;;;;;;;5016609;28;20065;-73
2022/06/10 00:31:42;;;;;;;11.55;5.80;;;;;;;;;;5017854;28;20129;-73
2022/06/10 00:34:08;;;;;;;12.23;5.75;;;;;;;;;;5017143;28;20033;-73
2022/06/10 00:36:35;;;;;;;11.00;5.45;;;;;;;;;;5016738;28;20053;-72
2022/06/10 00:39:01;;;;;;;10.95;5.97;;;;;;;;;;5016022;28;20062;-72
2022/06/10 00:41:28;;;;;;;12.15;5.75;;;;;;;;;;5010677;28;20037;-72
2022/06/10 00:43:54;;;;;;;10.25;5.95;;;;;;;;;;5017606;28;20057;-73
2022/06/10 00:46:36;;;;;;;12.15;6.15;;;;;;;;;;5038670;23;20399;-78
2022/06/10 00:49:08;;;;;;;13.05;6.55;;;;;;;;;;5033057;28;20045;-78
2022/06/10 00:51:38;;;;;;;12.75;6.05;;;;;;;;;;5031809;28;20609;-78
2022/06/10 00:54:14;;;;;;;14.18;6.38;;;;;;;;;;5032657;28;20044;-78
2022/06/10 00:56:42;;;;;;;9.55;5.65;;;;;;;;;;5024090;28;20149;-78
2022/06/10 00:59:11;;;;;;;10.15;5.90;;;;;;;;;;5012910;28;20136;-78
2022/06/10 01:01:38;;;;;;;11.45;6.38;;;;;;;;;;5028676;28;20453;-78
2022/06/10 01:04:05;;;;;;;11.43;6.10;;;;;;;;;;5017960;28;20096;-78
2022/06/10 01:06:31;;;;;;;12.55;6.60;;;;;;;;;;5018068;28;20049;-78
2022/06/10 01:08:58;;;;;;;11.27;5.90;;;;;;;;;;5019096;28;20128;-78
2022/06/10 01:11:24;;;;;;;11.75;6.40;;;;;;;;;;5020715;28;20387;-78
2022/06/10 01:13:53;;;;;;;12.23;6.55;;;;;;;;;;5032453;28;20041;-78
2022/06/10 01:16:19;;;;;;;11.23;6.50;;;;;;;;;;5032391;28;20494;-77
2022/06/10 01:19:04;;;;;;;12.10;6.32;;;;;;;;;;5024098;28;20060;-77
2022/06/10 01:21:48;;;;;;;9.77;6.18;;;;;;;;;;5032476;28;20050;-77
2022/06/10 01:24:14;;;;;;;11.93;6.63;;;;;;;;;;5025061;28;20394;-79
2022/06/10 01:29:34;;;;;;;10.18;6.00;;;;;;;;;;5027085;28;20058;-78
2022/06/10 01:32:03;;;;;;;11.20;6.22;;;;;;;;;;5011770;28;20090;-78
2022/06/10 01:34:29;;;;;;;9.65;5.80;;;;;;;;;;5032213;28;20486;-77
2022/06/10 01:37:07;;;;;;;9.93;5.82;;;;;;;;;;5030844;28;20049;-77
2022/06/10 01:39:44;;;;;;;11.40;5.68;;;;;;;;;;5012855;28;20121;-78
2022/06/10 01:42:23;;;;;;;15.23;6.15;;;;;;;;;;5014076;28;20050;-78
2022/06/10 01:44:52;;;;;;;10.20;5.68;;;;;;;;;;5011238;28;20053;-80
2022/06/10 01:47:21;;;;;;;9.90;5.55;;;;;;;;;;5020850;28;20058;-79
2022/06/10 01:49:54;;;;;;;12.00;5.80;;;;;;;;;;5012648;28;20050;-80
2022/06/10 01:52:32;;;;;;;12.98;6.35;;;;;;;;;;5011578;28;20053;-80
2022/06/10 01:55:08;;;;;;;9.85;5.60;;;;;;;;;;5012501;28;20084;-80
2022/06/10 01:57:34;;;;;;;13.93;5.80;;;;;;;;;;5011653;28;20046;-81
2022/06/10 02:00:04;;;;;;;11.10;5.38;;;;;;;;;;5010989;28;20053;-79
2022/06/10 02:02:32;;;;;;;11.35;5.90;;;;;;;;;;4998351;28;20491;-79
2022/06/10 02:05:01;;;;;;;11.00;5.45;;;;;;;;;;5011599;28;20054;-80
2022/06/10 02:07:32;;;;;;;10.52;5.85;;;;;;;;;;5011683;28;20045;-79
2022/06/10 02:10:03;;;;;;;12.98;5.75;;;;;;;;;;5012397;28;20046;-80
2022/06/10 02:12:42;;;;;;;13.93;6.00;;;;;;;;;;5015869;28;20104;-79
2022/06/10 02:15:13;;;;;;;11.50;5.93;;;;;;;;;;5015582;28;20045;-79
2022/06/10 02:17:40;;;;;;;17.92;6.65;;;;;;;;;;5015206;28;20060;-78
2022/06/10 02:20:09;;;;;;;10.65;5.75;;;;;;;;;;5015765;28;20080;-78
2022/06/10 02:22:38;;;;;;;13.68;5.88;;;;;;;;;;5015574;28;20042;-79
2022/06/10 02:25:07;;;;;;;14.30;6.03;;;;;;;;;;5013349;28;20049;-79
2022/06/10 02:27:37;;;;;;;13.27;6.00;;;;;;;;;;5015712;28;20042;-79
2022/06/10 02:30:23;;;;;;;12.55;5.63;;;;;;;;;;5015682;28;20069;-79
2022/06/10 02:32:50;;;;;;;12.48;5.80;;;;;;;;;;5015517;28;20046;-79
2022/06/10 02:35:16;;;;;;;12.35;5.53;;;;;;;;;;5001795;28;20487;-79
2022/06/10 02:38:09;;;;;;;13.20;5.35;;;;;;;;;;4997345;28;20414;-79
2022/06/10 02:40:47;;;;;;;13.48;5.65;;;;;;;;;;5013766;28;20081;-79
2022/06/10 02:43:25;;;;;;;14.82;5.65;;;;;;;;;;5013468;28;20132;-79
2022/06/10 02:45:58;;;;;;;15.63;6.22;;;;;;;;;;5015195;28;20054;-79
2022/06/10 02:48:37;;;;;;;12.02;5.65;;;;;;;;;;5014661;28;20145;-79
2022/06/10 02:51:03;;;;;;;13.77;6.10;;;;;;;;;;5013824;28;20049;-79
2022/06/10 02:53:29;;;;;;;13.43;5.75;;;;;;;;;;5011702;28;20458;-79
2022/06/10 02:55:55;;;;;;;14.13;5.40;;;;;;;;;;5014723;28;20041;-79
2022/06/10 03:01:18;;;;;;;13.65;5.70;;;;;;;;;;5013764;28;20050;-77
2022/06/10 03:04:03;;;;;;;12.00;5.65;;;;;;;;;;5014245;28;20050;-78
2022/06/10 03:06:47;;;;;;;12.43;6.07;;;;;;;;;;5014977;28;20074;-78
2022/06/10 03:09:18;;;;;;;15.40;6.47;;;;;;;;;;5013663;28;20045;-79
2022/06/10 03:11:55;;;;;;;10.45;6.63;;;;;;;;;;4997236;28;20050;-80
2022/06/10 03:14:47;;;;;;;11.95;5.75;;;;;;;;;;5013985;28;20048;-78
2022/06/10 03:17:32;;;;;;;11.32;6.15;;;;;;;;;;5013109;28;20065;-78
2022/06/10 03:19:58;;;;;;;13.85;6.30;;;;;;;;;;5014216;28;20045;-79
2022/06/10 03:22:39;;;;;;;19.98;6.38;;;;;;;;;;5013367;28;20049;-78
2022/06/10 03:25:17;;;;;;;13.73;5.97;;;;;;;;;;4994991;28;20085;-77
2022/06/10 03:27:47;;;;;;;13.45;6.00;;;;;;;;;;4995003;28;20400;-79
2022/06/10 03:30:17;;;;;;;14.75;6.20;;;;;;;;;;5014610;28;20079;-78
2022/06/10 03:32:48;;;;;;;12.15;5.88;;;;;;;;;;5029232;28;20124;-78
2022/06/10 03:35:14;;;;;;;10.82;6.10;;;;;;;;;;5014062;28;20046;-78
2022/06/10 03:37:41;;;;;;;11.65;5.85;;;;;;;;;;5013124;28;20041;-78
2022/06/10 03:40:08;;;;;;;13.45;6.60;;;;;;;;;;5013930;28;20491;-78
2022/06/10 03:42:34;;;;;;;11.75;6.28;;;;;;;;;;5013759;28;20045;-78
2022/06/10 03:45:00;;;;;;;14.18;6.63;;;;;;;;;;5014136;28;20038;-78
2022/06/10 03:47:31;;;;;;;16.13;6.20;;;;;;;;;;5013474;28;20392;-78
2022/06/10 03:49:57;;;;;;;10.80;6.15;;;;;;;;;;5013502;28;20111;-78
2022/06/10 03:52:28;;;;;;;13.05;6.10;;;;;;;;;;5011899;28;20057;-78
2022/06/10 03:54:54;;;;;;;13.88;5.38;;;;;;;;;;5013814;28;20580;-78
2022/06/10 03:57:20;;;;;;;11.35;5.45;;;;;;;;;;5013465;28;20042;-78
2022/06/10 03:59:46;;;;;;;14.77;6.18;;;;;;;;;;5013755;28;20450;-79
2022/06/10 04:02:12;;;;;;;12.38;5.70;;;;;;;;;;5012957;28;20495;-78
2022/06/10 04:04:38;;;;;;;13.25;5.85;;;;;;;;;;5012659;28;20057;-79
2022/06/10 04:07:05;;;;;;;14.07;5.55;;;;;;;;;;5013615;28;20084;-80
2022/06/10 04:09:31;;;;;;;12.65;5.18;;;;;;;;;;5013704;28;20128;-79
2022/06/10 04:11:57;;;;;;;13.48;5.53;;;;;;;;;;5013541;28;20041;-79
2022/06/10 04:14:24;;;;;;;13.43;5.53;;;;;;;;;;5012906;28;20038;-78
2022/06/10 04:16:50;;;;;;;13.07;5.45;;;;;;;;;;5013880;28;20050;-79
2022/06/10 04:19:16;;;;;;;12.30;5.38;;;;;;;;;;5010278;28;20124;-79
2022/06/10 04:21:43;;;;;;;11.48;5.72;;;;;;;;;;5013389;28;20042;-79
2022/06/10 04:24:09;;;;;;;8.98;4.95;;;;;;;;;;5012706;28;20499;-79
2022/06/10 04:26:35;;;;;;;11.50;4.80;;;;;;;;;;5013243;28;20042;-79
2022/06/10 04:29:01;;;;;;;13.43;4.50;;;;;;;;;;5012386;28;20111;-80
2022/06/10 04:31:27;;;;;;;11.52;4.72;;;;;;;;;;5013058;28;20562;-80
2022/06/10 04:33:54;;;;;;;9.07;4.18;;;;;;;;;;5010920;28;20129;-79
2022/06/10 04:36:20;;;;;;;11.90;4.80;;;;;;;;;;5013219;28;20057;-80
2022/06/10 04:38:46;;;;;;;10.35;4.35;;;;;;;;;;5011236;28;20050;-79
2022/06/10 04:41:13;;;;;;;10.68;4.07;;;;;;;;;;5012111;28;20076;-80
2022/06/10 04:43:39;;;;;;;12.00;4.50;;;;;;;;;;5012524;28;20041;-79
2022/06/10 04:46:07;;;;;;;11.10;4.45;;;;;;;;;;5012032;28;20045;-79
2022/06/10 04:48:33;;;;;;;11.77;4.40;;;;;;;;;;5012228;28;20049;-79
2022/06/10 04:50:59;;;;;;;11.45;5.15;;;;;;;;;;5012856;28;20514;-79
2022/06/10 04:53:26;;;;;;;14.13;4.68;;;;;;;;;;5010771;28;20411;-80
2022/06/10 04:55:52;;;;;;;17.33;4.72;;;;;;;;;;5013009;28;20569;-80
2022/06/10 04:58:21;;;;;;;15.52;5.00;;;;;;;;;;5011479;28;20049;-79
2022/06/10 05:00:49;;;;;;;9.43;4.40;;;;;;;;;;5012626;28;20049;-78
2022/06/10 05:03:15;;;;;;;12.80;4.90;;;;;;;;;;5012148;28;20112;-78
2022/06/10 05:05:42;;;;;;;10.57;4.63;;;;;;;;;;5012963;28;20049;-78
2022/06/10 05:08:09;;;;;;;15.10;4.95;;;;;;;;;;5011826;28;20033;-78
2022/06/10 05:10:35;;;;;;;9.73;4.40;;;;;;;;;;5011656;28;20153;-78
2022/06/10 05:13:01;;;;;;;12.63;4.50;;;;;;;;;;5011759;28;20037;-78
2022/06/10 05:15:28;;;;;;;13.20;4.82;;;;;;;;;;5012533;28;20044;-78
2022/06/10 05:17:56;;;;;;;12.23;4.88;;;;;;;;;;5011829;28;20368;-78
2022/06/10 05:20:26;;;;;;;11.63;4.72;;;;;;;;;;5012500;28;20121;-78
2022/06/10 05:22:53;;;;;;;10.20;4.57;;;;;;;;;;5011826;28;20045;-78
2022/06/10 05:25:19;;;;;;;13.50;4.95;;;;;;;;;;5012493;28;20052;-78
2022/06/10 05:27:45;;;;;;;11.43;5.13;;;;;;;;;;5010455;28;20042;-78
2022/06/10 05:30:17;;;;;;;10.32;4.88;;;;;;;;;;5012229;28;20050;-79
2022/06/10 05:32:43;;;;;;;10.70;4.97;;;;;;;;;;5011922;28;20466;-79
2022/06/10 05:35:09;;;;;;;10.48;4.90;;;;;;;;;;5012824;28;20084;-80
2022/06/10 05:37:35;;;;;;;8.57;4.90;;;;;;;;;;5011609;28;20398;-86
2022/06/10 05:40:01;;;;;;;13.55;4.65;;;;;;;;;;5012482;28;20498;-78
2022/06/10 05:42:27;;;;;;;10.52;4.57;;;;;;;;;;5011124;28;20252;-82
2022/06/10 05:44:54;;;;;;;11.45;4.80;;;;;;;;;;5014184;28;20096;-77
2022/06/10 05:47:22;;;;;;;11.60;5.05;;;;;;;;;;5014064;28;20058;-77
2022/06/10 05:49:50;;;;;;;12.23;5.03;;;;;;;;;;5016405;28;20180;-78
2022/06/10 05:52:18;;;;;;;13.88;5.05;;;;;;;;;;5016023;28;20129;-78
2022/06/10 05:54:45;;;;;;;10.88;5.03;;;;;;;;;;5016101;28;20041;-78
2022/06/10 05:57:11;;;;;;;9.32;4.72;;;;;;;;;;5014757;28;20042;-79
2022/06/10 05:59:38;;;;;;;15.35;4.82;;;;;;;;;;5014459;28;20505;-79
2022/06/10 06:02:05;;;;;;;12.65;5.15;;;;;;;;;;5014586;28;20068;-78
2022/06/10 06:04:32;;;;;;;11.25;5.50;;;;;;;;;;5015310;28;20042;-78
2022/06/10 06:06:58;;;;;;;10.60;5.78;;;;;;;;;;5015543;28;20052;-78
2022/06/10 06:09:24;;;;;;;12.25;5.45;;;;;;;;;;5015100;28;20129;-78
2022/06/10 06:11:50;;;;;;;15.10;5.40;;;;;;;;;;5014496;28;20056;-78
2022/06/10 06:14:18;;;;;;;12.70;5.93;;;;;;;;;;5013380;28;20073;-81
2022/06/10 06:16:48;;;;;;;11.38;4.85;;;;;;;;;;4997758;28;20152;-79
2022/06/10 06:19:14;;;;;;;14.63;5.47;;;;;;;;;;5016304;28;20046;-78
2022/06/10 06:21:40;;;;;;;15.15;5.47;;;;;;;;;;5012793;28;20072;-79
2022/06/10 06:24:06;;;;;;;14.00;5.43;;;;;;;;;;5015166;28;20038;-79
2022/06/10 06:26:32;;;;;;;9.43;5.50;;;;;;;;;;5015489;28;20104;-78
2022/06/10 06:28:58;;;;;;;13.50;5.25;;;;;;;;;;5014585;28;20204;-79
2022/06/10 06:31:25;;;;;;;10.88;5.07;;;;;;;;;;5014677;28;20046;-78
2022/06/10 06:33:51;;;;;;;10.10;5.13;;;;;;;;;;5014249;28;20049;-78
2022/06/10 06:36:22;;;;;;;15.23;5.68;;;;;;;;;;5014986;28;20103;-78
2022/06/10 06:38:48;;;;;;;12.18;5.70;;;;;;;;;;5014621;28;20124;-78
2022/06/10 06:41:14;;;;;;;9.35;5.68;;;;;;;;;;5015857;28;20046;-78
2022/06/10 06:43:42;;;;;;;11.88;6.05;;;;;;;;;;5014687;28;20057;-78
2022/06/10 06:46:09;;;;;;;14.90;6.05;;;;;;;;;;5012213;28;20107;-79
2022/06/10 06:48:36;;;;;;;13.18;5.80;;;;;;;;;;5015036;28;20046;-80
2022/06/10 06:51:02;;;;;;;12.25;6.68;;;;;;;;;;5028670;28;20061;-79
2022/06/10 06:53:28;;;;;;;10.75;6.43;;;;;;;;;;5038272;28;20042;-79
2022/06/10 06:55:54;;;;;;;15.20;7.07;;;;;;;;;;5013562;28;20054;-78
2022/06/10 06:58:20;;;;;;;11.18;6.38;;;;;;;;;;5015587;28;20046;-78
2022/06/10 07:00:46;;;;;;;16.45;8.18;;;;;;;;;;5014665;28;20034;-80
2022/06/10 07:03:12;;;;;;;16.00;7.70;;;;;;;;;;5013591;28;20487;-77
2022/06/10 07:05:42;;;;;;;15.15;7.38;;;;;;;;;;5013327;28;20042;-78
2022/06/10 07:08:09;;;;;;;15.55;7.68;;;;;;;;;;5015354;28;20383;-79
2022/06/10 07:10:35;;;;;;;16.35;7.85;;;;;;;;;;5015174;28;20042;-78
2022/06/10 07:13:01;;;;;;;15.70;8.30;;;;;;;;;;5014691;28;20046;-78
2022/06/10 07:15:27;;;;;;;14.35;8.40;;;;;;;;;;5015440;28;20113;-78
2022/06/10 07:17:53;;;;;;;14.90;8.60;;;;;;;;;;5014631;28;20056;-79
2022/06/10 07:20:24;;;;;;;14.68;8.00;;;;;;;;;;5014425;28;20042;-80
2022/06/10 07:22:50;;;;;;;18.90;8.80;;;;;;;;;;5013584;28;20088;-80
2022/06/10 07:25:17;;;;;;;16.58;8.00;;;;;;;;;;5013512;28;20100;-80
2022/06/10 07:27:44;;;;;;;13.77;7.95;;;;;;;;;;5016565;28;20393;-84
2022/06/10 07:30:11;;;;;;;13.88;8.10;;;;;;;;;;5014543;28;20113;-79
2022/06/10 07:32:37;;;;;;;17.90;8.55;;;;;;;;;;5017847;28;20038;-79
2022/06/10 07:35:03;;;;;;;12.85;7.30;;;;;;;;;;5014115;28;20049;-78
2022/06/10 07:37:30;;;;;;;12.05;7.65;;;;;;;;;;4993696;28;20466;-77
2022/06/10 07:39:57;;;;;;;10.80;7.85;;;;;;;;;;5011323;28;20050;-77
2022/06/10 07:42:23;;;;;;;14.65;9.13;;;;;;;;;;5009881;28;20126;-78
2022/06/10 07:44:49;;;;;;;10.75;7.35;;;;;;;;;;5013873;28;20048;-78
2022/06/10 07:47:15;;;;;;;12.10;8.75;;;;;;;;;;5013764;28;20518;-78
2022/06/10 07:49:41;;;;;;;14.63;9.02;;;;;;;;;;5013670;28;20057;-77
2022/06/10 07:52:10;;;;;;;12.70;8.50;;;;;;;;;;5013198;28;20495;-79
2022/06/10 07:54:36;;;;;;;13.18;9.38;;;;;;;;;;5015143;28;20054;-78
2022/06/10 07:57:04;;;;;;;13.07;8.95;;;;;;;;;;5014072;28;20046;-78
2022/06/10 07:59:31;;;;;;;10.02;8.23;;;;;;;;;;5013079;28;20046;-79
2022/06/10 08:01:58;;;;;;;11.90;8.32;;;;;;;;;;5013684;28;20049;-78
2022/06/10 08:04:24;;;;;;;12.23;8.10;;;;;;;;;;5014020;28;20085;-78
2022/06/10 08:06:50;;;;;;;13.05;8.50;;;;;;;;;;5011334;28;20074;-78
2022/06/10 08:09:20;;;;;;;10.68;8.77;;;;;;;;;;5013206;28;20505;-78
2022/06/10 08:11:47;;;;;;;10.32;8.00;;;;;;;;;;5012814;28;20050;-78
2022/06/10 08:14:14;;;;;;;9.85;8.10;;;;;;;;;;5012937;28;20454;-78
2022/06/10 08:16:40;;;;;;;10.82;8.80;;;;;;;;;;5004196;28;20054;-78
2022/06/10 08:19:06;;;;;;;11.20;9.25;;;;;;;;;;5009677;28;20487;-78
2022/06/10 08:24:20;;;;;;;13.75;10.32;;;;;;;;;;5013499;28;20392;-78
2022/06/10 08:26:46;;;;;;;15.40;10.25;;;;;;;;;;5011718;28;20127;-78
2022/06/10 08:29:12;;;;;;;12.13;9.48;;;;;;;;;;5013215;28;20072;-79
2022/06/10 08:31:38;;;;;;;12.15;9.25;;;;;;;;;;5011228;28;20121;-78
2022/06/10 08:34:04;;;;;;;10.60;9.40;;;;;;;;;;5012013;28;20622;-78
2022/06/10 08:36:31;;;;;;;14.77;9.75;;;;;;;;;;5012922;28;20244;-79
2022/06/10 08:38:58;;;;;;;13.30;9.50;;;;;;;;;;5012654;28;20046;-78
2022/06/10 08:41:42;;;;;;;10.27;8.55;;;;;;;;;;5013200;28;20558;-78
2022/06/10 08:44:14;;;;;;;9.52;7.82;;;;;;;;;;5013468;28;20041;-78
2022/06/10 08:46:46;;;;;;;9.48;8.57;;;;;;;;;;5010280;28;20053;-78
2022/06/10 08:49:12;;;;;;;12.00;9.98;;;;;;;;;;5022204;28;20096;-78
2022/06/10 08:51:51;;;;;;;12.57;9.30;;;;;;;;;;5012974;28;20049;-81
2022/06/10 08:54:34;;;;;;;12.35;9.35;;;;;;;;;;5011284;28;20423;-78
2022/06/10 08:57:03;;;;;;;14.50;10.27;;;;;;;;;;5011372;28;20119;-78
2022/06/10 08:59:33;;;;;;;12.43;10.30;;;;;;;;;;5014217;28;20046;-79
2022/06/10 09:02:14;;;;;;;13.05;9.60;;;;;;;;;;5010394;28;20079;-77
2022/06/10 09:05:01;;;;;;;16.65;11.07;;;;;;;;;;5012632;28;20541;-81
2022/06/10 09:07:45;;;;;;;16.20;10.88;;;;;;;;;;5010958;28;20125;-82
2022/06/10 09:10:31;;;;;;;16.67;10.85;;;;;;;;;;5012352;28;20041;-78
2022/06/10 09:13:20;;;;;;;18.92;11.57;;;;;;;;;;5013433;28;20057;-78
2022/06/10 09:15:50;;;;;;;14.90;11.57;;;;;;;;;;5012558;28;20042;-79
2022/06/10 09:18:27;;;;;;;20.10;11.52;;;;;;;;;;5012072;28;20049;-78
2022/06/10 09:20:57;;;;;;;17.88;11.32;;;;;;;;;;5012175;28;20058;-78
2022/06/10 09:23:29;;;;;;;19.65;11.50;;;;;;;;;;5012889;28;20064;-81
2022/06/10 09:25:57;;;;;;;16.27;10.82;;;;;;;;;;5012789;28;20066;-78
2022/06/10 09:28:23;;;;;;;16.35;10.18;;;;;;;;;;5012358;28;20090;-78
2022/06/10 09:30:52;;;;;;;15.77;10.55;;;;;;;;;;5013280;28;20286;-79
2022/06/10 09:33:18;;;;;;;15.05;9.80;;;;;;;;;;5010075;28;20046;-79
2022/06/10 09:35:53;;;;;;;14.43;9.68;;;;;;;;;;5011777;28;20120;-79
2022/06/10 09:38:19;;;;;;;15.35;9.57;;;;;;;;;;5012923;28;20064;-78
2022/06/10 09:40:51;;;;;;;18.80;9.23;;;;;;;;;;5014611;28;20042;-78
2022/06/10 09:43:24;;;;;;;14.90;9.02;;;;;;;;;;5013060;28;20046;-79
2022/06/10 09:45:56;;;;;;;15.27;8.90;;;;;;;;;;5010034;28;20534;-78
2022/06/10 09:48:26;;;;;;;13.45;8.27;;;;;;;;;;5012564;28;20212;-79
2022/06/10 09:51:00;;;;;;;13.77;9.00;;;;;;;;;;5010511;28;20514;-77
2022/06/10 09:53:46;;;;;;;14.65;8.88;;;;;;;;;;5012554;28;20044;-77
2022/06/10 09:56:24;;;;;;;13.73;8.57;;;;;;;;;;5011141;28;20057;-80
2022/06/10 09:59:08;;;;;;;16.92;9.65;;;;;;;;;;5011427;28;20042;-77
2022/06/10 10:01:34;;;;;;;16.40;10.10;;;;;;;;;;5012744;28;20104;-78
2022/06/10 10:04:12;;;;;;;16.27;9.80;;;;;;;;;;5011956;28;20395;-78
2022/06/10 10:06:50;;;;;;;15.40;9.63;;;;;;;;;;5008143;28;20042;-83
2022/06/10 10:09:16;;;;;;;15.40;9.77;;;;;;;;;;5012175;28;20088;-77
2022/06/10 10:11:49;;;;;;;13.93;9.90;;;;;;;;;;5013902;28;20049;-77
2022/06/10 10:14:18;;;;;;;13.45;9.30;;;;;;;;;;5023787;28;20038;-77
2022/06/10 10:16:53;;;;;;;17.30;9.90;;;;;;;;;;5011395;28;20461;-77
2022/06/10 10:19:28;;;;;;;15.18;10.10;;;;;;;;;;5010206;28;20053;-77
2022/06/10 10:22:13;;;;;;;17.40;10.38;;;;;;;;;;5010689;28;20120;-77
2022/06/10 10:24:41;;;;;;;17.95;10.77;;;;;;;;;;5011672;28;20053;-77
2022/06/10 10:27:20;;;;;;;16.45;11.07;;;;;;;;;;5012172;28;20045;-77
2022/06/10 10:29:48;;;;;;;17.30;10.70;;;;;;;;;;5011070;28;20053;-77
2022/06/10 10:32:16;;;;;;;17.20;10.93;;;;;;;;;;5015196;28;20052;-77
2022/06/10 10:34:45;;;;;;;18.77;11.13;;;;;;;;;;5021528;28;20044;-77
2022/06/10 10:37:29;;;;;;;20.08;12.23;;;;;;;;;;5015104;28;20471;-77
2022/06/10 10:39:59;;;;;;;12.88;10.75;;;;;;;;;;5015410;28;20046;-76
2022/06/10 10:42:29;;;;;;;20.60;11.32;;;;;;;;;;5014442;28;20407;-77
2022/06/10 10:44:55;;;;;;;16.83;11.20;;;;;;;;;;5013472;28;20046;-76
2022/06/10 10:47:23;;;;;;;18.17;10.80;;;;;;;;;;5014153;28;20434;-76
2022/06/10 10:49:50;;;;;;;14.95;11.30;;;;;;;;;;5014592;28;20048;-76
2022/06/10 10:52:28;;;;;;;18.77;11.25;;;;;;;;;;5015351;28;20479;-79
2022/06/10 10:55:12;;;;;;;17.80;10.82;;;;;;;;;;4993646;28;20121;-78
2022/06/10 10:57:39;;;;;;;16.35;11.20;;;;;;;;;;4995756;28;20053;-79
2022/06/10 11:00:06;;;;;;;16.45;10.80;;;;;;;;;;5006994;28;20049;-78
2022/06/10 11:02:32;;;;;;;13.30;10.52;;;;;;;;;;5015041;28;20061;-78
2022/06/10 11:05:16;;;;;;;16.55;10.90;;;;;;;;;;5014710;28;20038;-77
2022/06/10 11:07:43;;;;;;;16.15;11.82;;;;;;;;;;5026031;28;20042;-77
2022/06/10 11:10:25;;;;;;;18.85;12.23;;;;;;;;;;5026772;28;20545;-78
2022/06/10 11:12:51;;;;;;;16.60;12.68;;;;;;;;;;5014279;28;20047;-77
2022/06/10 11:15:18;;;;;;;16.05;13.45;;;;;;;;;;5016014;28;20042;-77
2022/06/10 11:17:46;;;;;;;15.55;13.95;;;;;;;;;;5013674;28;20046;-78
2022/06/10 11:20:16;;;;;;;16.27;14.57;;;;;;;;;;5014792;28;20038;-78
2022/06/10 11:22:44;;;;;;;16.70;13.77;;;;;;;;;;5013797;28;20077;-78
2022/06/10 11:25:16;;;;;;;20.05;14.65;;;;;;;;;;5014631;28;20057;-78
2022/06/10 11:28:03;;;;;;;17.67;14.43;;;;;;;;;;5014594;28;20082;-78
2022/06/10 11:30:49;;;;;;;15.43;13.85;;;;;;;;;;5028723;28;20057;-78
2022/06/10 11:33:27;;;;;;;16.23;14.05;;;;;;;;;;5014433;28;20050;-77
2022/06/10 11:36:05;;;;;;;18.20;14.32;;;;;;;;;;5013228;28;20510;-77
2022/06/10 11:38:33;;;;;;;15.95;13.43;;;;;;;;;;5013986;28;20104;-77
2022/06/10 11:41:00;;;;;;;15.80;11.23;;;;;;;;;;5014074;28;20070;-75
2022/06/10 11:43:47;;;;;;;13.48;10.73;;;;;;;;;;5013778;28;20049;-79
2022/06/10 11:46:16;;;;;;;13.38;9.35;;;;;;;;;;5011696;28;20566;-81
2022/06/10 11:48:42;;;;;;;13.85;10.55;;;;;;;;;;5012325;28;20049;-77
2022/06/10 11:51:15;;;;;;;11.38;10.13;;;;;;;;;;5015587;28;20092;-78
2022/06/10 11:53:44;;;;;;;13.95;10.68;;;;;;;;;;5012378;28;20046;-78
2022/06/10 12:01:58;;;;;;;12.65;10.00;;;;;;;;;;5026761;28;20081;-78
2022/06/10 12:04:28;;;;;;;15.00;11.23;;;;;;;;;;5013642;28;20049;-79
2022/06/10 12:06:57;;;;;;;17.33;11.18;;;;;;;;;;5004374;28;20084;-77
2022/06/10 12:09:35;;;;;;;17.25;11.52;;;;;;;;;;5012996;28;20080;-78
2022/06/10 12:12:01;;;;;;;20.55;12.32;;;;;;;;;;5020973;28;20042;-77
2022/06/10 12:14:27;;;;;;;18.33;11.00;;;;;;;;;;5011943;28;20034;-78
2022/06/10 12:16:59;;;;;;;15.35;11.55;;;;;;;;;;5018866;28;20124;-77
2022/06/10 12:19:28;;;;;;;16.55;11.43;;;;;;;;;;5002612;28;20077;-79
2022/06/10 12:21:54;;;;;;;17.67;10.63;;;;;;;;;;5033384;28;20163;-78
2022/06/10 12:24:20;;;;;;;15.57;10.27;;;;;;;;;;5033370;28;20585;-78
2022/06/10 12:26:49;;;;;;;17.13;10.63;;;;;;;;;;5026857;28;20045;-78
2022/06/10 12:29:15;;;;;;;14.52;10.25;;;;;;;;;;5015805;28;20482;-78
2022/06/10 12:31:47;;;;;;;16.38;10.52;;;;;;;;;;5020420;28;20041;-78
2022/06/10 12:34:18;;;;;;;15.75;10.35;;;;;;;;;;5009684;28;20052;-80
2022/06/10 12:36:49;;;;;;;12.60;9.40;;;;;;;;;;5010609;28;20041;-77
2022/06/10 12:39:24;;;;;;;15.48;9.40;;;;;;;;;;5009277;28;20053;-76
2022/06/10 12:41:50;;;;;;;;;;;;;;;;;;5012559;28;20050;-77
2022/06/10 12:44:20;;;;;;;11.20;8.00;;;;;;;;;;5013040;28;19928;-79
2022/06/10 12:46:48;;;;;;;12.20;7.80;;;;;;;;;;5011147;28;20049;-77
2022/06/10 12:49:19;;;;;;;15.48;7.13;;;;;;;;;;5012385;28;20506;-77
2022/06/10 12:51:53;;;;;;;9.98;7.60;;;;;;;;;;5011676;28;20100;-78
2022/06/10 12:54:25;;;;;;;10.38;6.43;;;;;;;;;;5012571;28;20157;-77
2022/06/10 12:57:10;;;;;;;8.20;5.25;;;;;;;;;;5011921;28;20049;-79
2022/06/10 12:59:36;;;;;;;7.15;3.80;;;;;;;;;;5009766;28;20067;-77
2022/06/10 13:02:03;;;;;;;6.05;3.15;;;;;;;;;;5010136;28;20148;-77
2022/06/10 13:04:29;;;;;;;5.00;2.65;;;;;;;;;;5011982;28;20115;-77
2022/06/10 13:07:03;;;;;;;4.80;2.67;;;;;;;;;;5006426;28;20053;-77
2022/06/10 13:09:32;;;;;;;5.03;2.50;;;;;;;;;;5013163;28;20049;-78
2022/06/10 13:12:00;;;;;;;5.15;2.60;;;;;;;;;;5010757;28;20498;-78
2022/06/10 13:14:27;;;;;;;6.35;2.70;;;;;;;;;;5010411;28;20121;-78
2022/06/10 13:16:59;;;;;;;5.68;2.85;;;;;;;;;;5006512;28;20495;-78
2022/06/10 13:19:36;;;;;;;6.65;3.42;;;;;;;;;;5001302;28;20394;-78
2022/06/10 13:22:20;;;;;;;7.07;3.33;;;;;;;;;;5011501;28;20053;-77
2022/06/10 13:24:55;;;;;;;6.18;3.20;;;;;;;;;;5009570;28;20481;-77
2022/06/10 13:27:24;;;;;;;5.80;3.10;;;;;;;;;;4998377;28;20093;-75
2022/06/10 13:29:55;;;;;;;6.00;3.10;;;;;;;;;;5008766;28;20058;-78
2022/06/10 13:32:22;;;;;;;5.80;2.67;;;;;;;;;;5013212;28;20067;-77
2022/06/10 13:34:58;;;;;;;10.02;3.40;;;;;;;;;;5011457;28;20056;-77
2022/06/10 13:37:25;;;;;;;7.20;3.05;;;;;;;;;;5012380;28;20088;-78
2022/06/10 13:39:52;;;;;;;7.80;2.70;;;;;;;;;;5012368;28;20126;-79
2022/06/10 13:42:25;;;;;;;6.35;2.90;;;;;;;;;;5011124;28;20046;-78
2022/06/10 13:44:52;;;;;;;8.50;3.08;;;;;;;;;;5012604;28;20046;-77
2022/06/10 13:47:25;;;;;;;8.98;3.50;;;;;;;;;;5012114;28;20499;-77
2022/06/10 13:50:11;;;;;;;9.65;4.18;;;;;;;;;;5011105;28;20054;-77
2022/06/10 13:52:39;;;;;;;7.93;3.97;;;;;;;;;;5012608;28;20050;-78
2022/06/10 13:55:32;;;;;;;7.88;3.63;;;;;;;;;;5008008;28;20400;-78
2022/06/10 13:58:19;;;;;;;8.20;3.70;;;;;;;;;;5011223;28;20058;-77
2022/06/10 14:00:47;;;;;;;9.05;3.88;;;;;;;;;;5012425;28;20119;-77
2022/06/10 14:03:24;;;;;;;8.35;3.70;;;;;;;;;;5012343;28;20140;-77
2022/06/10 14:05:57;;;;;;;11.32;4.05;;;;;;;;;;5013380;28;20457;-77
2022/06/10 14:08:23;;;;;;;8.65;3.75;;;;;;;;;;5014942;28;20129;-77
2022/06/10 14:10:49;;;;;;;9.65;3.50;;;;;;;;;;5015870;28;20083;-78
2022/06/10 14:13:26;;;;;;;10.63;3.67;;;;;;;;;;5016297;28;20041;-77
2022/06/10 14:15:55;;;;;;;9.82;3.60;;;;;;;;;;5014755;28;20138;-77
2022/06/10 14:18:23;;;;;;;7.20;3.47;;;;;;;;;;5014573;28;20050;-76
2022/06/10 14:20:50;;;;;;;7.85;3.78;;;;;;;;;;5015778;28;20060;-77
2022/06/10 14:23:48;;;;;;;9.65;3.60;;;;;;;;;;5014978;28;20042;-77
2022/06/10 14:26:21;;;;;;;9.40;4.10;;;;;;;;;;4993941;28;20061;-77
2022/06/10 14:28:47;;;;;;;11.98;4.28;;;;;;;;;;4993265;28;20051;-77
2022/06/10 14:31:27;;;;;;;7.47;3.60;;;;;;;;;;4993791;28;20050;-76
2022/06/10 14:33:55;;;;;;;10.73;4.07;;;;;;;;;;4993762;28;20057;-77
2022/06/10 14:36:23;;;;;;;6.57;4.20;;;;;;;;;;4976622;28;20133;-78
2022/06/10 14:39:23;;;;;;;12.05;4.10;;;;;;;;;;4992922;28;20141;-77
2022/06/10 14:42:03;;;;;;;10.18;4.00;;;;;;;;;;4952889;28;20090;-77
2022/06/10 14:44:32;;;;;;;9.00;3.60;;;;;;;;;;4992695;28;20049;-81
2022/06/10 14:47:15;;;;;;;8.70;4.03;;;;;;;;;;4992736;28;20515;-77
2022/06/10 14:49:44;;;;;;;13.05;4.15;;;;;;;;;;4993684;28;20049;-82
2022/06/10 14:52:11;;;;;;;10.38;4.03;;;;;;;;;;4992464;28;20125;-79
2022/06/10 14:54:37;;;;;;;8.63;3.55;;;;;;;;;;4987980;28;20053;-78
2022/06/10 14:57:06;;;;;;;8.00;3.22;;;;;;;;;;4991429;28;20086;-78
2022/06/10 14:59:33;;;;;;;12.95;4.10;;;;;;;;;;4974244;28;20375;-78
2022/06/10 15:02:00;;;;;;;8.18;4.15;;;;;;;;;;5004445;28;20438;-77